createdAt,value
2023-04-15T00:01:06.002Z,49.00
2023-04-15T00:03:34.714Z,51.25
2023-04-15T00:06:02.514Z,42.75
2023-04-15T00:08:30.195Z,44.25
2023-04-15T00:10:57.681Z,51.00
2023-04-15T00:13:24.754Z,41.50
2023-04-15T00:15:52.252Z,50.00
2023-04-15T00:18:19.221Z,51.50
2023-04-15T00:20:46.070Z,63.25
2023-04-15T00:23:13.033Z,64.75
2023-04-15T00:25:40.459Z,46.50
2023-04-15T00:28:07.382Z,66.25
2023-04-15T00:30:34.377Z,58.00
2023-04-15T00:33:04.986Z,52.00
2023-04-15T00:35:35.988Z,56.25
2023-04-15T00:38:06.060Z,56.00
2023-04-15T00:40:33.487Z,45.75
2023-04-15T00:43:00.788Z,48.75
2023-04-15T00:45:28.298Z,34.50
2023-04-15T00:47:56.084Z,25.50
2023-04-15T00:50:23.167Z,40.25
2023-04-15T00:52:50.003Z,36.50
2023-04-15T00:55:17.016Z,43.25
2023-04-15T00:57:44.811Z,38.50
2023-04-15T01:00:12.248Z,49.50
2023-04-15T01:02:39.499Z,47.00
2023-04-15T01:05:07.735Z,45.00
2023-04-15T01:07:34.645Z,47.25
2023-04-15T01:10:04.319Z,47.00
2023-04-15T01:12:33.959Z,47.25
2023-04-15T01:15:01.810Z,48.25
2023-04-15T01:17:28.848Z,44.50
2023-04-15T01:19:58.024Z,46.75
2023-04-15T01:22:26.878Z,44.50
2023-04-15T01:25:49.446Z,46.00
2023-04-15T01:28:16.941Z,47.75
2023-04-15T01:30:44.695Z,43.00
2023-04-15T01:33:12.311Z,35.75
2023-04-15T01:35:39.182Z,32.50
2023-04-15T01:38:08.883Z,40.00
2023-04-15T01:40:35.968Z,29.00
2023-04-15T01:43:03.941Z,24.00
2023-04-15T01:45:31.167Z,15.50
2023-04-15T01:47:58.136Z,20.75
2023-04-15T01:50:26.214Z,14.00
2023-04-15T01:52:55.560Z,19.50
2023-04-15T01:55:22.436Z,25.00
2023-04-15T01:57:49.337Z,23.25
2023-04-15T02:00:17.736Z,17.00
2023-04-15T02:02:44.944Z,31.00
2023-04-15T02:05:12.043Z,22.00
2023-04-15T02:07:39.009Z,28.75
2023-04-15T02:10:06.254Z,38.75
2023-04-15T02:12:35.865Z,37.75
2023-04-15T02:15:02.830Z,24.25
2023-04-15T02:17:29.798Z,28.75
2023-04-15T02:19:56.984Z,47.50
2023-04-15T02:22:24.854Z,27.75
2023-04-15T02:24:51.779Z,39.75
2023-04-15T02:27:18.977Z,32.75
2023-04-15T02:29:46.379Z,32.00
2023-04-15T02:32:14.105Z,42.75
2023-04-15T02:34:42.763Z,39.50
2023-04-15T02:37:11.895Z,26.75
2023-04-15T02:39:39.062Z,30.50
2023-04-15T02:42:06.179Z,45.00
2023-04-15T02:44:35.303Z,19.00
2023-04-15T02:47:05.177Z,27.75
2023-04-15T02:49:32.065Z,38.75
2023-04-15T02:52:00.205Z,37.25
2023-04-15T02:54:30.047Z,32.00
2023-04-15T02:56:57.470Z,24.50
2023-04-15T02:59:24.841Z,26.75
2023-04-15T03:01:51.832Z,26.25
2023-04-15T03:04:18.901Z,26.00
2023-04-15T03:06:46.330Z,37.25
2023-04-15T03:09:13.242Z,28.75
2023-04-15T03:11:42.143Z,32.50
2023-04-15T03:14:10.067Z,31.00
2023-04-15T03:16:41.339Z,31.00
2023-04-15T03:19:08.320Z,29.75
2023-04-15T03:21:35.987Z,36.75
2023-04-15T03:24:03.006Z,30.75
2023-04-15T03:26:31.148Z,27.50
2023-04-15T03:29:01.849Z,28.50
2023-04-15T03:31:29.276Z,42.75
2023-04-15T03:33:56.179Z,27.75
2023-04-15T03:36:23.838Z,40.75
2023-04-15T03:38:50.767Z,40.50
2023-04-15T03:41:17.638Z,41.50
2023-04-15T03:43:44.621Z,37.25
2023-04-15T03:46:11.566Z,28.75
2023-04-15T03:48:38.473Z,37.25
2023-04-15T03:51:05.405Z,33.75
2023-04-15T03:53:32.240Z,31.25
2023-04-15T03:55:59.165Z,33.50
2023-04-15T03:58:26.180Z,26.50
2023-04-15T04:00:53.092Z,35.00
2023-04-15T04:03:20.147Z,30.50
2023-04-15T04:05:47.350Z,35.00
2023-04-15T04:08:15.195Z,34.50
2023-04-15T04:10:42.723Z,36.25
2023-04-15T04:13:09.585Z,27.25
2023-04-15T04:15:36.744Z,26.75
2023-04-15T04:18:03.836Z,31.50
2023-04-15T04:20:32.197Z,35.25
2023-04-15T04:22:59.203Z,36.25
2023-04-15T04:25:26.150Z,36.25
2023-04-15T04:27:53.113Z,37.00
2023-04-15T04:30:20.214Z,37.50
2023-04-15T04:32:47.133Z,30.00
2023-04-15T04:35:14.080Z,39.00
2023-04-15T04:37:40.947Z,37.00
2023-04-15T04:40:08.611Z,42.50
2023-04-15T04:42:36.843Z,43.25
2023-04-15T04:45:05.946Z,51.50
2023-04-15T04:47:32.828Z,39.25
2023-04-15T04:49:59.746Z,29.75
2023-04-15T04:52:26.582Z,33.75
2023-04-15T04:54:53.458Z,185.50
2023-04-15T04:57:20.301Z,55.00
2023-04-15T04:59:47.211Z,58.75
2023-04-15T05:02:14.161Z,54.75
2023-04-15T05:04:41.895Z,52.50
2023-04-15T05:07:08.843Z,103.50
2023-04-15T05:09:36.929Z,109.00
2023-04-15T05:12:06.841Z,96.50
2023-04-15T05:14:33.879Z,101.50
2023-04-15T05:17:00.750Z,94.50
2023-04-15T05:19:27.776Z,99.50
2023-04-15T05:21:55.399Z,105.50
2023-04-15T05:24:22.697Z,92.75
2023-04-15T05:26:49.653Z,80.00
2023-04-15T05:29:16.840Z,57.25
2023-04-15T05:31:44.184Z,53.25
2023-04-15T05:34:12.371Z,49.25
2023-04-15T05:36:39.313Z,49.50
2023-04-15T05:39:06.214Z,52.75
2023-04-15T05:41:33.272Z,72.25
2023-04-15T05:44:00.210Z,68.25
2023-04-15T05:46:27.625Z,67.00
2023-04-15T05:48:56.345Z,44.00
2023-04-15T05:51:23.510Z,46.00
2023-04-15T05:53:50.578Z,44.00
2023-04-15T05:56:17.564Z,48.25
2023-04-15T05:58:44.512Z,44.50
2023-04-15T06:01:11.813Z,58.75
2023-04-15T06:03:39.844Z,53.50
2023-04-15T06:06:07.733Z,47.33
2023-04-15T06:08:34.659Z,40.67
2023-04-15T06:11:01.712Z,42.33
2023-04-15T06:13:29.455Z,43.33
2023-04-15T06:15:56.307Z,41.00
2023-04-15T06:18:23.237Z,36.33
2023-04-15T06:20:50.152Z,24.25
2023-04-15T06:23:17.008Z,32.33
2023-04-15T06:25:43.870Z,34.67
2023-04-15T06:28:10.778Z,28.00
2023-04-15T06:30:38.569Z,32.33
2023-04-15T06:33:06.407Z,36.00
2023-04-15T06:35:33.248Z,38.33
2023-04-15T06:38:00.055Z,37.67
2023-04-15T06:40:27.189Z,39.00
2023-04-15T06:42:54.124Z,46.67
2023-04-15T06:45:21.044Z,46.33
2023-04-15T06:47:47.913Z,44.33
2023-04-15T06:50:14.903Z,41.33
2023-04-15T06:52:41.924Z,46.00
2023-04-15T06:55:08.988Z,45.00
2023-04-15T06:57:36.046Z,40.33
2023-04-15T07:00:05.829Z,32.00
2023-04-15T07:02:32.974Z,33.00
2023-04-15T07:04:59.913Z,37.67
2023-04-15T07:07:26.822Z,31.75
2023-04-15T07:09:53.904Z,22.25
2023-04-15T07:12:21.517Z,32.25
2023-04-15T07:14:49.492Z,28.75
2023-04-15T07:17:16.695Z,39.33
2023-04-15T07:19:43.572Z,40.00
2023-04-15T07:22:10.671Z,43.33
2023-04-15T07:24:37.465Z,37.67
2023-04-15T07:27:04.362Z,35.67
2023-04-15T07:29:31.563Z,32.67
2023-04-15T07:31:58.482Z,25.75
2023-04-15T07:34:25.872Z,26.50
2023-04-15T07:36:52.924Z,35.67
2023-04-15T07:39:19.959Z,36.67
2023-04-15T07:41:46.857Z,44.33
2023-04-15T07:44:13.862Z,29.67
2023-04-15T07:46:41.260Z,33.00
2023-04-15T07:49:08.224Z,23.50
2023-04-15T07:51:35.156Z,14.25
2023-04-15T07:54:01.972Z,7.50
2023-04-15T07:56:28.870Z,1.75
2023-04-15T07:58:55.709Z,9.00
2023-04-15T08:01:22.901Z,8.25
2023-04-15T08:03:49.930Z,7.25
2023-04-15T08:06:17.239Z,8.50
2023-04-15T08:08:44.279Z,3.25
2023-04-15T08:11:11.190Z,8.50
2023-04-15T08:13:38.109Z,14.50
2023-04-15T08:16:21.565Z,6.00
2023-04-15T08:18:50.423Z,5.00
2023-04-15T08:21:19.515Z,3.00
2023-04-15T08:23:49.475Z,3.00
2023-04-15T08:26:17.479Z,5.00
2023-04-15T08:28:45.699Z,3.75
2023-04-15T08:31:14.347Z,2.50
2023-04-15T08:33:41.196Z,3.75
2023-04-15T08:36:08.558Z,11.67
2023-04-15T08:38:36.448Z,1.75
2023-04-15T08:41:11.962Z,3.00
2023-04-15T08:43:49.922Z,1.50
2023-04-15T08:46:17.665Z,0.75
2023-04-15T08:48:46.175Z,1.75
2023-04-15T08:51:16.186Z,1.00
2023-04-15T08:53:44.855Z,1.75
2023-04-15T08:56:14.360Z,1.00
2023-04-15T08:58:45.146Z,2.75
2023-04-15T09:01:15.363Z,2.00
2023-04-15T09:03:42.715Z,3.00
2023-04-15T09:06:09.889Z,2.00
2023-04-15T09:08:36.795Z,3.75
2023-04-15T09:11:04.266Z,3.75
2023-04-15T09:13:31.803Z,1.00
2023-04-15T09:15:58.832Z,1.00
2023-04-15T09:18:34.310Z,1.00
2023-04-15T09:21:11.219Z,3.00
2023-04-15T09:23:56.241Z,3.50
2023-04-15T09:26:37.211Z,1.50
2023-04-15T09:29:09.292Z,3.25
2023-04-15T09:31:38.785Z,2.75
2023-04-15T09:34:06.276Z,4.00
2023-04-15T09:37:02.542Z,4.00
2023-04-15T09:39:46.365Z,3.50
2023-04-15T09:42:13.304Z,5.00
2023-04-15T09:44:40.536Z,2.00
2023-04-15T09:47:07.541Z,2.00
2023-04-15T09:49:34.529Z,3.00
2023-04-15T09:52:06.195Z,3.00
2023-04-15T09:54:38.189Z,3.75
2023-04-15T09:57:07.338Z,2.00
2023-04-15T09:59:34.511Z,4.00
2023-04-15T10:02:09.990Z,2.25
2023-04-15T10:04:41.519Z,3.00
2023-04-15T10:07:10.004Z,4.00
2023-04-15T10:09:38.329Z,3.75
2023-04-15T10:12:05.874Z,4.50
2023-04-15T10:14:35.877Z,3.00
2023-04-15T10:17:05.564Z,4.25
2023-04-15T10:19:36.546Z,3.00
2023-04-15T10:22:04.289Z,4.00
2023-04-15T10:24:33.176Z,2.50
2023-04-15T10:27:00.655Z,2.75
2023-04-15T10:29:27.833Z,4.25
2023-04-15T10:31:56.524Z,3.25
2023-04-15T10:34:24.904Z,5.75
2023-04-15T10:36:52.112Z,4.50
2023-04-15T10:39:34.870Z,4.00
2023-04-15T10:42:13.044Z,3.25
2023-04-15T10:44:42.240Z,4.00
2023-04-15T10:47:14.258Z,4.00
2023-04-15T10:50:01.718Z,7.00
2023-04-15T10:52:29.746Z,6.00
2023-04-15T10:55:11.368Z,18.67
2023-04-15T10:57:40.095Z,4.00
2023-04-15T11:00:17.511Z,4.00
2023-04-15T11:02:47.573Z,5.50
2023-04-15T11:05:19.164Z,5.00
2023-04-15T11:07:58.642Z,7.50
2023-04-15T11:10:25.936Z,6.00
2023-04-15T11:12:56.840Z,6.75
2023-04-15T11:15:31.168Z,6.00
2023-04-15T11:18:10.159Z,3.25
2023-04-15T11:20:38.815Z,6.25
2023-04-15T11:23:13.967Z,4.00
2023-04-15T11:25:43.300Z,4.50
2023-04-15T11:28:12.047Z,5.00
2023-04-15T11:30:40.215Z,4.75
2023-04-15T11:33:09.349Z,4.00
2023-04-15T11:35:36.933Z,2.00
2023-04-15T11:38:10.997Z,3.25
2023-04-15T11:40:38.672Z,3.25
2023-04-15T11:43:21.546Z,17.75
2023-04-15T11:46:00.221Z,2.50
2023-04-15T11:48:32.537Z,5.75
2023-04-15T11:51:00.511Z,4.00
2023-04-15T11:53:48.048Z,6.00
2023-04-15T11:56:26.563Z,3.00
2023-04-15T11:58:58.792Z,8.25
2023-04-15T12:01:36.686Z,4.00
2023-04-15T12:04:12.178Z,4.00
2023-04-15T12:06:39.417Z,8.25
2023-04-15T12:09:13.218Z,6.50
2023-04-15T12:11:48.469Z,4.00
2023-04-15T12:14:29.550Z,1.00
2023-04-15T12:17:02.872Z,4.00
2023-04-15T12:19:43.385Z,2.75
2023-04-15T12:22:13.135Z,4.00
2023-04-15T12:24:40.456Z,3.00
2023-04-15T12:27:10.155Z,3.00
2023-04-15T12:29:39.206Z,7.75
2023-04-15T12:32:08.702Z,2.50
2023-04-15T12:34:37.010Z,4.00
2023-04-15T12:37:05.776Z,3.00
2023-04-15T12:39:36.442Z,1.25
2023-04-15T12:42:06.650Z,4.00
2023-04-15T12:44:34.320Z,2.00
2023-04-15T12:47:01.379Z,4.00
2023-04-15T12:49:28.556Z,10.00
2023-04-15T12:51:57.601Z,5.00
2023-04-15T12:54:24.499Z,8.50
2023-04-15T12:56:51.893Z,7.25
2023-04-15T12:59:18.878Z,7.00
2023-04-15T13:01:47.568Z,6.25
2023-04-15T13:04:15.588Z,1.00
2023-04-15T13:06:43.126Z,2.50
2023-04-15T13:09:10.152Z,2.75
2023-04-15T13:11:37.295Z,1.00
2023-04-15T13:14:06.473Z,2.00
2023-04-15T13:16:34.690Z,3.00
2023-04-15T13:19:04.184Z,2.00
2023-04-15T13:21:35.683Z,2.00
2023-04-15T13:24:04.534Z,2.75
2023-04-15T13:26:32.090Z,1.25
2023-04-15T13:28:59.832Z,0.00
2023-04-15T13:31:27.290Z,2.75
2023-04-15T13:33:54.449Z,5.25
2023-04-15T13:36:21.506Z,2.00
2023-04-15T13:38:50.930Z,2.00
2023-04-15T13:41:18.661Z,1.50
2023-04-15T13:43:45.729Z,2.00
2023-04-15T13:46:14.664Z,0.50
2023-04-15T13:48:41.864Z,1.25
2023-04-15T13:51:08.781Z,2.50
2023-04-15T13:53:39.144Z,2.00
2023-04-15T13:56:08.716Z,1.00
2023-04-15T13:58:36.781Z,4.75
2023-04-15T14:01:05.857Z,2.25
2023-04-15T14:03:34.062Z,3.00
2023-04-15T14:06:01.344Z,1.00
2023-04-15T14:08:28.339Z,3.00
2023-04-15T14:10:55.397Z,5.00
2023-04-15T14:13:22.223Z,2.00
2023-04-15T14:15:49.115Z,1.75
2023-04-15T14:18:16.090Z,2.00
2023-04-15T14:20:42.904Z,2.50
2023-04-15T14:23:09.810Z,3.00
2023-04-15T14:25:39.199Z,2.00
2023-04-15T14:28:06.093Z,3.75
2023-04-15T14:30:33.266Z,2.00
2023-04-15T14:33:00.527Z,2.25
2023-04-15T14:35:28.150Z,2.00
2023-04-15T14:37:55.836Z,3.00
2023-04-15T14:40:22.984Z,4.75
2023-04-15T14:42:49.972Z,3.00
2023-04-15T14:45:17.817Z,3.75
2023-04-15T14:47:45.061Z,6.25
2023-04-15T14:50:12.303Z,5.50
2023-04-15T14:52:39.415Z,3.75
2023-04-15T14:55:10.694Z,4.00
2023-04-15T14:57:38.768Z,1.75
2023-04-15T15:00:07.472Z,1.00
2023-04-15T15:02:39.603Z,2.50
2023-04-15T15:05:08.565Z,3.00
2023-04-15T15:07:39.514Z,5.00
2023-04-15T15:10:07.256Z,6.25
2023-04-15T15:12:34.478Z,4.25
2023-04-15T15:15:04.963Z,5.75
2023-04-15T15:17:36.483Z,5.50
2023-04-15T15:20:04.170Z,6.75
2023-04-15T15:22:31.037Z,8.25
2023-04-15T15:24:59.909Z,5.25
2023-04-15T15:27:27.968Z,4.75
2023-04-15T15:29:56.701Z,9.50
2023-04-15T15:32:23.625Z,8.00
2023-04-15T15:34:50.636Z,5.00
2023-04-15T15:37:18.381Z,4.50
2023-04-15T15:39:45.456Z,9.00
2023-04-15T15:42:12.448Z,8.25
2023-04-15T15:44:39.313Z,9.25
2023-04-15T15:47:06.639Z,10.25
2023-04-15T15:49:33.802Z,12.00
2023-04-15T15:52:00.908Z,12.00
2023-04-15T15:54:27.956Z,8.50
2023-04-15T15:56:54.907Z,10.75
2023-04-15T15:59:21.768Z,13.67
2023-04-15T16:01:49.392Z,10.00
2023-04-15T16:04:16.598Z,10.00
2023-04-15T16:06:46.772Z,16.00
2023-04-15T16:09:14.100Z,10.67
2023-04-15T16:11:41.696Z,12.33
2023-04-15T16:14:08.612Z,10.00
2023-04-15T16:16:35.732Z,7.75
2023-04-15T16:19:02.879Z,4.75
2023-04-15T16:21:30.632Z,4.50
2023-04-15T16:23:57.804Z,5.00
2023-04-15T16:26:24.749Z,8.33
2023-04-15T16:28:51.613Z,9.67
2023-04-15T16:31:18.506Z,7.00
2023-04-15T16:33:45.338Z,12.00
2023-04-15T16:36:12.230Z,9.50
2023-04-15T16:38:39.061Z,2.25
2023-04-15T16:41:06.088Z,7.00
2023-04-15T16:43:33.112Z,5.75
2023-04-15T16:46:00.069Z,11.00
2023-04-15T16:48:27.167Z,9.33
2023-04-15T16:50:53.992Z,9.75
2023-04-15T16:53:21.012Z,12.00
2023-04-15T16:55:47.888Z,12.67
2023-04-15T16:58:15.604Z,16.67
2023-04-15T17:00:42.717Z,20.00
2023-04-15T17:03:09.777Z,20.00
2023-04-15T17:05:36.799Z,10.67
2023-04-15T17:08:04.972Z,12.00
2023-04-15T17:10:31.778Z,15.33
2023-04-15T17:12:59.313Z,15.00
2023-04-15T17:15:27.259Z,11.67
2023-04-15T17:17:54.506Z,8.33
2023-04-15T17:20:21.725Z,14.00
2023-04-15T17:22:49.225Z,9.67
2023-04-15T17:25:16.143Z,10.00
2023-04-15T17:27:43.152Z,8.33
2023-04-15T17:30:10.764Z,4.33
2023-04-15T17:32:39.494Z,3.00
2023-04-15T17:35:07.114Z,6.00
2023-04-15T17:37:34.603Z,3.00
2023-04-15T17:40:02.250Z,10.00
2023-04-15T17:42:29.329Z,19.00
2023-04-15T17:44:56.199Z,11.67
2023-04-15T17:47:23.163Z,15.67
2023-04-15T17:49:50.106Z,15.67
2023-04-15T17:52:16.999Z,18.33
2023-04-15T17:54:43.805Z,18.00
2023-04-15T17:57:10.796Z,22.67
2023-04-15T17:59:37.677Z,16.00
2023-04-15T18:02:04.715Z,16.67
2023-04-15T18:04:31.789Z,9.33
2023-04-15T18:06:58.916Z,25.00
2023-04-15T18:09:26.984Z,40.75
2023-04-15T18:11:53.936Z,7.33
2023-04-15T18:14:33.689Z,13.00
2023-04-15T18:17:02.737Z,41.75
2023-04-15T18:19:30.877Z,31.00
2023-04-15T18:22:00.436Z,15.33
2023-04-15T18:24:28.061Z,16.00
2023-04-15T18:26:55.153Z,16.00
2023-04-15T18:29:22.429Z,6.33
2023-04-15T18:31:49.409Z,10.33
2023-04-15T18:34:16.373Z,16.33
2023-04-15T18:36:43.558Z,18.33
2023-04-15T18:39:10.633Z,10.00
2023-04-15T18:41:37.588Z,5.67
2023-04-15T18:44:04.495Z,6.00
2023-04-15T18:46:31.421Z,11.33
2023-04-15T18:48:58.437Z,11.00
2023-04-15T18:51:25.897Z,6.67
2023-04-15T18:53:52.845Z,10.00
2023-04-15T18:56:20.544Z,7.67
2023-04-15T18:59:26.933Z,28.67
2023-04-15T19:01:34.494Z,20.67
2023-04-15T19:04:02.435Z,31.33
2023-04-15T19:06:29.476Z,34.00
2023-04-15T19:08:58.526Z,42.00
2023-04-15T19:11:26.749Z,45.50
2023-04-15T19:13:54.440Z,50.00
2023-04-15T19:16:21.331Z,58.00
2023-04-15T19:18:48.507Z,65.50
2023-04-15T19:21:15.911Z,54.25
2023-04-15T19:23:43.254Z,48.75
2023-04-15T19:26:11.682Z,49.50
2023-04-15T19:28:38.583Z,40.50
2023-04-15T19:31:05.857Z,51.25
2023-04-15T19:33:32.956Z,32.50
2023-04-15T19:36:05.925Z,34.25
2023-04-15T19:38:37.839Z,44.00
2023-04-15T19:41:04.667Z,56.75
2023-04-15T19:43:32.852Z,37.00
2023-04-15T19:45:59.922Z,56.25
2023-04-15T19:48:27.073Z,49.75
2023-04-15T19:50:54.045Z,60.75
2023-04-15T19:53:21.005Z,43.00
2023-04-15T19:55:48.495Z,44.25
2023-04-15T19:58:16.277Z,44.50
2023-04-15T20:00:43.220Z,52.75
2023-04-15T20:03:11.041Z,55.50
2023-04-15T20:05:38.088Z,52.75
2023-04-15T20:08:06.365Z,45.50
2023-04-15T20:10:33.293Z,39.50
2023-04-15T20:13:00.314Z,34.50
2023-04-15T20:15:27.358Z,30.25
2023-04-15T20:17:54.567Z,13.00
2023-04-15T20:20:21.797Z,9.00
2023-04-15T20:22:49.015Z,21.00
2023-04-15T20:25:15.863Z,29.50
2023-04-15T20:27:44.684Z,32.50
2023-04-15T20:30:11.764Z,13.00
2023-04-15T20:32:38.989Z,27.50
2023-04-15T20:35:07.016Z,45.00
2023-04-15T20:37:34.261Z,57.75
2023-04-15T20:40:01.674Z,51.00
2023-04-15T20:42:33.570Z,52.50
2023-04-15T20:45:01.262Z,50.50
2023-04-15T20:47:28.458Z,79.50
2023-04-15T20:49:55.576Z,50.50
2023-04-15T20:52:22.470Z,73.00
2023-04-15T20:54:49.983Z,52.25
2023-04-15T20:57:17.022Z,44.25
2023-04-15T20:59:44.078Z,48.50
2023-04-15T21:02:11.202Z,43.75
2023-04-15T21:04:38.933Z,37.00
2023-04-15T21:07:06.016Z,49.50
2023-04-15T21:09:32.996Z,39.00
2023-04-15T21:12:01.915Z,30.25
2023-04-15T21:14:29.749Z,46.75
2023-04-15T21:16:58.319Z,44.25
2023-04-15T21:19:25.299Z,47.00
2023-04-15T21:21:52.570Z,36.00
2023-04-15T21:24:19.553Z,36.25
2023-04-15T21:26:46.428Z,30.00
2023-04-15T21:29:13.720Z,31.75
2023-04-15T21:31:40.876Z,41.75
2023-04-15T21:34:08.048Z,43.00
2023-04-15T21:36:35.427Z,52.75
2023-04-15T21:39:02.468Z,43.50
2023-04-15T21:41:29.596Z,41.50
2023-04-15T21:43:56.983Z,38.25
2023-04-15T21:46:25.354Z,23.25
2023-04-15T21:48:53.620Z,25.25
2023-04-15T21:51:20.606Z,19.75
2023-04-15T21:53:48.045Z,25.00
2023-04-15T21:56:14.901Z,20.50
2023-04-15T21:58:41.822Z,16.00
2023-04-15T22:01:08.725Z,20.50
2023-04-15T22:03:35.813Z,21.00
2023-04-15T22:06:03.990Z,8.33
2023-04-15T22:08:41.292Z,10.00
2023-04-15T22:11:28.819Z,16.00
2023-04-15T22:13:58.606Z,10.00
2023-04-15T22:16:26.459Z,27.00
2023-04-15T22:18:54.072Z,21.00
2023-04-15T22:21:20.986Z,35.25
2023-04-15T22:23:49.337Z,49.25
2023-04-15T22:26:16.301Z,54.00
2023-04-15T22:28:43.358Z,52.75
2023-04-15T22:31:10.516Z,49.50
2023-04-15T22:33:37.544Z,42.50
2023-04-15T22:36:04.479Z,37.75
2023-04-15T22:38:31.541Z,39.00
2023-04-15T22:40:58.596Z,48.50
2023-04-15T22:43:26.140Z,41.25
2023-04-15T22:45:55.122Z,41.00
2023-04-15T22:48:22.921Z,45.00
2023-04-15T22:50:50.172Z,37.50
2023-04-15T22:53:17.838Z,39.25
2023-04-15T22:55:46.561Z,45.75
2023-04-15T22:58:14.171Z,43.75
2023-04-15T23:00:41.103Z,47.25
2023-04-15T23:03:08.345Z,42.25
2023-04-15T23:05:35.398Z,46.00
2023-04-15T23:08:02.578Z,45.25
2023-04-15T23:10:29.670Z,41.75
2023-04-15T23:12:56.644Z,48.50
2023-04-15T23:15:23.672Z,47.75
2023-04-15T23:17:50.795Z,77.25
2023-04-15T23:20:17.832Z,56.25
2023-04-15T23:22:45.820Z,45.75
2023-04-15T23:25:12.636Z,43.00
2023-04-15T23:27:39.556Z,49.50
2023-04-15T23:30:07.270Z,48.25
2023-04-15T23:32:34.242Z,45.25
2023-04-15T23:35:01.140Z,39.75
2023-04-15T23:37:33.925Z,43.00
2023-04-15T23:40:01.051Z,41.25
2023-04-15T23:42:27.904Z,41.25
2023-04-15T23:44:54.856Z,45.25
2023-04-15T23:47:22.171Z,50.25
2023-04-15T23:49:49.145Z,51.75
2023-04-15T23:52:16.057Z,51.75
2023-04-15T23:54:42.974Z,49.00
2023-04-15T23:57:09.872Z,48.75
2023-04-15T23:59:36.734Z,41.25
